Time;durP1;ratioP1;P1;durP2;ratioP2;P2;SDS_P1;SDS_P2;PMS_P1;PMS_P2;Temp;Humidity;BMP_temperature;BMP_pressure;BME280_temperature;BME280_humidity;BME280_pressure;Samples;Min_cycle;Max_cycle;Signal;HPM_P1;HPM_P2
2021/11/01 00:01:58;;;;;;;3.83;2.33;;;14.70;53.50;;;;;;5106010;28;20818;-66
2021/11/01 00:04:29;;;;;;;2.80;2.50;;;14.70;53.80;;;;;;5110904;28;20464;-64
2021/11/01 00:07:01;;;;;;;2.80;2.53;;;14.60;54.70;;;;;;5106665;28;20469;-65
2021/11/01 00:09:32;;;;;;;2.83;2.63;;;14.60;54.90;;;;;;5110519;28;20810;-70
2021/11/01 00:12:03;;;;;;;3.13;2.83;;;14.50;54.50;;;;;;5111986;28;20463;-71
2021/11/01 00:14:34;;;;;;;2.40;2.20;;;14.40;54.50;;;;;;5109025;28;20468;-70
2021/11/01 00:17:05;;;;;;;2.97;2.67;;;14.30;55.50;;;;;;5110516;28;20477;-71
2021/11/01 00:19:36;;;;;;;3.10;2.90;;;14.30;56.10;;;;;;5109154;28;20935;-71
2021/11/01 00:22:12;;;;;;;5.00;3.77;;;14.20;54.40;;;;;;5108657;28;20768;-73
2021/11/01 00:24:43;;;;;;;5.20;3.00;;;14.20;54.50;;;;;;5109568;27;20526;-72
2021/11/01 00:27:15;;;;;;;2.97;2.77;;;14.10;54.20;;;;;;5109011;28;20978;-72
2021/11/01 00:29:46;;;;;;;2.83;2.63;;;14.10;55.00;;;;;;5109937;28;20464;-69
2021/11/01 00:32:17;;;;;;;2.90;2.23;;;14.00;54.90;;;;;;5109211;28;20470;-69
2021/11/01 00:34:48;;;;;;;2.83;2.63;;;14.00;54.80;;;;;;5109065;28;20791;-68
2021/11/01 00:37:21;;;;;;;2.30;2.10;;;13.90;53.70;;;;;;5110718;28;20493;-68
2021/11/01 00:39:51;;;;;;;2.63;2.43;;;13.80;54.20;;;;;;5106819;28;20480;-66
2021/11/01 00:42:22;;;;;;;2.70;2.50;;;13.80;54.80;;;;;;5110671;28;20450;-68
2021/11/01 00:44:54;;;;;;;3.77;2.53;;;13.70;54.80;;;;;;5107145;28;20832;-69
2021/11/01 00:47:25;;;;;;;2.87;2.67;;;13.60;55.10;;;;;;5106037;28;20524;-72
2021/11/01 00:49:56;;;;;;;3.87;3.07;;;13.60;54.80;;;;;;5101224;28;20452;-71
2021/11/01 00:52:30;;;;;;;3.47;2.90;;;13.50;55.70;;;;;;5105402;28;20907;-71
2021/11/01 00:55:03;;;;;;;3.83;2.40;;;13.50;56.20;;;;;;5109577;28;20441;-71
2021/11/01 00:57:34;;;;;;;2.97;2.67;;;13.40;55.80;;;;;;5109378;28;20492;-71
2021/11/01 01:00:11;;;;;;;3.67;3.37;;;13.40;56.30;;;;;;5108917;28;20487;-71
2021/11/01 01:02:41;;;;;;;2.63;2.40;;;13.30;56.70;;;;;;5107483;28;20461;-70
2021/11/01 01:05:13;;;;;;;6.03;2.70;;;13.30;56.70;;;;;;5101093;28;20481;-70
2021/11/01 01:07:45;;;;;;;2.53;2.33;;;13.20;56.60;;;;;;5103737;28;20479;-69
2021/11/01 01:10:16;;;;;;;3.20;2.90;;;13.20;56.60;;;;;;5101212;28;20911;-70
2021/11/01 01:12:47;;;;;;;2.50;2.20;;;13.20;57.10;;;;;;5108102;28;20544;-70
2021/11/01 01:15:24;;;;;;;2.90;2.70;;;13.10;57.40;;;;;;5104195;28;20457;-69
2021/11/01 01:18:01;;;;;;;2.50;2.30;;;13.10;57.20;;;;;;5107709;28;20600;-70
2021/11/01 01:20:31;;;;;;;2.90;2.47;;;13.00;57.20;;;;;;5106005;28;20445;-71
2021/11/01 01:23:04;;;;;;;3.10;2.57;;;13.00;57.90;;;;;;5110119;28;20468;-70
2021/11/01 01:25:55;;;;;;;2.43;2.33;;;12.90;58.20;;;;;;5108730;28;20450;-70
2021/11/01 01:28:26;;;;;;;6.57;3.10;;;12.90;58.20;;;;;;5110228;28;20446;-70
2021/11/01 01:30:57;;;;;;;3.30;3.00;;;12.90;57.80;;;;;;5097085;28;20460;-71
2021/11/01 01:33:28;;;;;;;3.20;2.60;;;12.80;57.50;;;;;;5107379;28;20461;-71
2021/11/01 01:35:59;;;;;;;2.80;2.60;;;12.80;57.80;;;;;;5110589;28;20457;-71
2021/11/01 01:38:32;;;;;;;3.33;2.90;;;12.80;58.00;;;;;;5108346;28;20477;-71
2021/11/01 01:41:13;;;;;;;3.57;2.67;;;12.70;58.10;;;;;;5110360;28;20458;-70
2021/11/01 01:43:47;;;;;;;2.87;2.67;;;12.70;58.30;;;;;;5107878;28;20453;-71
2021/11/01 01:46:18;;;;;;;3.03;2.80;;;12.60;58.60;;;;;;5109257;28;20489;-70
2021/11/01 01:48:49;;;;;;;2.63;2.40;;;12.60;58.50;;;;;;5102755;28;20456;-71
2021/11/01 01:51:20;;;;;;;2.93;2.73;;;12.60;58.50;;;;;;5109975;28;20800;-70
2021/11/01 01:53:53;;;;;;;3.30;3.00;;;12.60;57.60;;;;;;5107911;28;20952;-71
2021/11/01 01:56:25;;;;;;;2.67;2.47;;;12.60;58.10;;;;;;5101990;28;20528;-70
2021/11/01 01:59:02;;;;;;;2.83;2.63;;;12.60;58.00;;;;;;5108243;28;20472;-70
2021/11/01 02:01:35;;;;;;;3.20;2.80;;;12.60;58.10;;;;;;5106607;28;20580;-71
2021/11/01 02:04:07;;;;;;;2.90;2.60;;;12.50;58.50;;;;;;5106144;28;20469;-71
2021/11/01 02:07:06;;;;;;;4.00;2.57;;;12.50;59.00;;;;;;5107826;28;20473;-70
2021/11/01 02:09:46;;;;;;;3.00;2.80;;;12.40;58.30;;;;;;5104391;28;20943;-71
2021/11/01 02:12:20;;;;;;;4.37;3.30;;;12.40;58.40;;;;;;5092781;28;20624;-72
2021/11/01 02:14:56;;;;;;;3.10;2.90;;;12.40;58.70;;;;;;5094393;27;20473;-69
2021/11/01 02:17:31;;;;;;;2.90;2.70;;;12.40;58.80;;;;;;5107125;28;20477;-68
2021/11/01 02:20:06;;;;;;;3.00;2.80;;;12.40;58.30;;;;;;5103329;28;20875;-66
2021/11/01 02:22:44;;;;;;;3.43;3.13;;;12.30;59.90;;;;;;5109069;28;20528;-69
2021/11/01 02:25:28;;;;;;;4.23;2.53;;;12.30;59.70;;;;;;5098382;28;20471;-69
2021/11/01 02:27:59;;;;;;;3.53;2.70;;;12.30;58.90;;;;;;5104393;28;20461;-69
2021/11/01 02:30:30;;;;;;;4.90;3.00;;;12.30;59.70;;;;;;5106423;28;20456;-71
2021/11/01 02:33:02;;;;;;;3.07;2.77;;;12.30;59.60;;;;;;5104789;28;20487;-71
2021/11/01 02:35:34;;;;;;;2.87;2.60;;;12.30;58.40;;;;;;5105955;28;20478;-74
2021/11/01 02:38:05;;;;;;;2.73;2.53;;;12.30;59.00;;;;;;5108263;28;20588;-68
2021/11/01 02:40:37;;;;;;;3.13;2.80;;;12.30;58.60;;;;;;5098908;28;20446;-69
2021/11/01 02:43:08;;;;;;;3.03;2.67;;;12.20;58.80;;;;;;5102054;28;20453;-71
2021/11/01 02:45:39;;;;;;;3.23;2.80;;;12.20;58.40;;;;;;5104054;28;20458;-70
2021/11/01 02:48:11;;;;;;;3.20;2.90;;;12.20;59.40;;;;;;5093599;28;20800;-68
2021/11/01 02:50:42;;;;;;;2.70;2.50;;;12.10;59.20;;;;;;5102297;28;20536;-69
2021/11/01 02:53:13;;;;;;;2.70;2.50;;;12.10;59.60;;;;;;5109106;28;20512;-68
2021/11/01 02:55:45;;;;;;;3.40;2.60;;;12.10;58.70;;;;;;5096733;28;20524;-69
2021/11/01 02:58:16;;;;;;;3.30;3.07;;;12.10;58.70;;;;;;5109907;28;20489;-69
2021/11/01 03:00:47;;;;;;;3.67;3.33;;;12.10;59.10;;;;;;5108208;28;21129;-67
2021/11/01 03:03:18;;;;;;;3.40;2.87;;;12.10;59.00;;;;;;5108325;28;20457;-67
2021/11/01 03:05:49;;;;;;;3.60;3.30;;;12.10;59.30;;;;;;5111875;28;20481;-67
2021/11/01 03:08:20;;;;;;;3.20;3.00;;;12.00;59.30;;;;;;5105601;28;20453;-67
2021/11/01 03:10:55;;;;;;;3.07;2.77;;;12.00;59.00;;;;;;5098425;28;20943;-66
2021/11/01 03:13:29;;;;;;;3.00;2.77;;;12.00;59.30;;;;;;5111003;27;20983;-67
2021/11/01 03:16:03;;;;;;;8.33;3.00;;;12.00;59.50;;;;;;5103507;28;20921;-69
2021/11/01 03:18:49;;;;;;;2.87;2.60;;;11.90;58.90;;;;;;5105566;28;20508;-68
2021/11/01 03:21:23;;;;;;;3.30;3.00;;;11.90;59.30;;;;;;5104067;28;20449;-68
2021/11/01 03:23:55;;;;;;;3.10;2.80;;;11.90;59.50;;;;;;5101112;28;20461;-68
2021/11/01 03:26:30;;;;;;;3.00;2.63;;;11.80;59.50;;;;;;5098565;28;20459;-69
2021/11/01 03:29:04;;;;;;;3.40;3.10;;;11.80;59.30;;;;;;5102093;27;20449;-68
2021/11/01 03:31:38;;;;;;;3.33;3.03;;;11.80;59.00;;;;;;5097389;28;20464;-68
2021/11/01 03:34:11;;;;;;;2.90;2.70;;;11.80;59.80;;;;;;5099499;28;20966;-67
2021/11/01 03:36:45;;;;;;;4.73;2.80;;;11.70;59.90;;;;;;5110276;28;20462;-67
2021/11/01 03:39:16;;;;;;;4.10;2.90;;;11.70;59.60;;;;;;5109101;28;20564;-66
2021/11/01 03:41:50;;;;;;;3.03;2.80;;;11.80;59.70;;;;;;5103860;28;20552;-67
2021/11/01 03:44:26;;;;;;;3.70;2.80;;;11.80;59.70;;;;;;5107677;28;20457;-67
2021/11/01 03:47:00;;;;;;;2.70;2.50;;;11.80;59.80;;;;;;5110251;27;20972;-67
2021/11/01 03:49:35;;;;;;;3.50;3.20;;;11.70;60.30;;;;;;5106615;28;20465;-66
2021/11/01 03:52:14;;;;;;;3.23;2.47;;;11.70;59.90;;;;;;5107684;28;20836;-68
2021/11/01 03:54:45;;;;;;;3.17;2.87;;;11.70;60.10;;;;;;5098625;28;20479;-66
2021/11/01 03:57:18;;;;;;;3.00;2.80;;;11.60;60.30;;;;;;5107814;28;20460;-65
2021/11/01 03:59:49;;;;;;;3.20;2.90;;;11.60;60.90;;;;;;5101208;28;20990;-67
2021/11/01 04:02:22;;;;;;;3.10;2.83;;;11.60;60.10;;;;;;5101942;28;20462;-66
2021/11/01 04:04:55;;;;;;;3.00;2.80;;;11.60;60.00;;;;;;5109194;28;20538;-67
2021/11/01 04:07:26;;;;;;;3.10;2.90;;;11.60;60.30;;;;;;5104004;28;20844;-67
2021/11/01 04:09:56;;;;;;;3.17;2.80;;;11.60;60.40;;;;;;5100360;28;20875;-67
2021/11/01 04:12:32;;;;;;;3.20;2.90;;;11.60;60.80;;;;;;5099710;28;20943;-68
2021/11/01 04:15:07;;;;;;;2.90;2.70;;;11.50;61.30;;;;;;5097883;28;20458;-67
2021/11/01 04:17:41;;;;;;;4.13;2.63;;;11.50;60.40;;;;;;5105055;28;20567;-68
2021/11/01 04:20:27;;;;;;;2.80;2.60;;;11.50;60.00;;;;;;5094356;28;20461;-67
2021/11/01 04:23:01;;;;;;;3.47;2.70;;;11.50;60.60;;;;;;5099668;28;20459;-67
2021/11/01 04:25:33;;;;;;;3.20;2.67;;;11.40;61.40;;;;;;5107548;28;20463;-67
2021/11/01 04:28:06;;;;;;;3.40;2.73;;;11.40;60.80;;;;;;5106268;28;20798;-67
2021/11/01 04:30:40;;;;;;;3.07;2.77;;;11.40;59.70;;;;;;5106952;28;20457;-67
2021/11/01 04:33:13;;;;;;;3.47;3.17;;;11.40;60.10;;;;;;5106402;28;20461;-69
2021/11/01 04:35:44;;;;;;;2.87;2.43;;;11.40;60.50;;;;;;5111309;28;20450;-67
2021/11/01 04:38:24;;;;;;;2.70;2.50;;;11.40;60.80;;;;;;5106811;28;20477;-68
2021/11/01 04:41:04;;;;;;;4.63;3.00;;;11.30;61.20;;;;;;5096661;28;20473;-67
2021/11/01 04:54:54;;;;;;;3.03;2.73;;;11.20;60.90;;;;;;5109336;28;20815;-73
2021/11/01 04:57:25;;;;;;;3.50;3.20;;;11.20;61.20;;;;;;5105144;28;21168;-67
2021/11/01 04:59:58;;;;;;;2.70;2.50;;;11.20;61.70;;;;;;5108312;28;20481;-68
2021/11/01 05:02:29;;;;;;;5.57;3.23;;;11.20;60.90;;;;;;5105515;28;20502;-67
2021/11/01 05:05:00;;;;;;;2.63;2.43;;;11.20;61.40;;;;;;5099439;28;20455;-67
2021/11/01 05:07:32;;;;;;;2.83;2.60;;;11.20;61.50;;;;;;5108010;28;20469;-68
2021/11/01 05:10:09;;;;;;;2.67;2.47;;;11.10;61.30;;;;;;5099939;27;20938;-68
2021/11/01 05:12:42;;;;;;;2.60;2.33;;;11.20;60.60;;;;;;5099022;28;20462;-67
2021/11/01 05:15:24;;;;;;;3.10;2.90;;;11.20;60.70;;;;;;5097062;28;20482;-67
2021/11/01 05:17:58;;;;;;;2.90;2.37;;;11.20;61.50;;;;;;5103639;28;20462;-67
2021/11/01 05:20:34;;;;;;;3.60;2.50;;;11.10;60.30;;;;;;5105355;27;20469;-68
2021/11/01 05:23:12;;;;;;;3.40;2.63;;;11.20;60.70;;;;;;5095709;28;20455;-68
2021/11/01 05:25:46;;;;;;;3.05;2.75;;;11.10;61.70;;;;;;5099478;27;20519;-68
2021/11/01 05:28:25;;;;;;;2.23;1.97;;;11.10;61.80;;;;;;5100911;28;20763;-68
2021/11/01 05:30:59;;;;;;;2.80;2.47;;;11.00;61.40;;;;;;5102013;28;20476;-68
2021/11/01 05:33:47;;;;;;;3.03;2.80;;;11.10;62.50;;;;;;5103830;27;20475;-68
2021/11/01 05:36:22;;;;;;;2.85;2.65;;;11.10;62.20;;;;;;5102330;28;20803;-67
2021/11/01 05:38:53;;;;;;;3.00;2.80;;;11.10;62.00;;;;;;5091834;28;21434;-68
2021/11/01 05:41:24;;;;;;;2.60;2.40;;;11.00;62.80;;;;;;5094334;28;20493;-67
2021/11/01 05:43:54;;;;;;;2.60;2.40;;;10.90;62.50;;;;;;5104575;28;20212;-68
2021/11/01 05:46:33;;;;;;;5.97;2.60;;;10.90;62.50;;;;;;5106312;28;20449;-70
2021/11/01 05:49:06;;;;;;;3.57;2.60;;;10.90;63.20;;;;;;5096236;28;20506;-68
2021/11/01 05:51:37;;;;;;;2.93;2.73;;;10.90;62.20;;;;;;5108760;27;20493;-68
2021/11/01 05:54:11;;;;;;;2.23;2.13;;;10.90;63.00;;;;;;5106214;28;20461;-68
2021/11/01 05:56:49;;;;;;;2.38;2.28;;;10.90;63.40;;;;;;5101061;28;20457;-68
2021/11/01 06:05:04;;;;;;;3.13;2.83;;;11.00;63.80;;;;;;5098734;28;20459;-68
2021/11/01 06:07:42;;;;;;;2.40;2.20;;;11.00;64.20;;;;;;5097443;28;20478;-67
2021/11/01 06:10:23;;;;;;;3.10;2.90;;;11.00;63.80;;;;;;5106254;28;20806;-68
2021/11/01 06:15:47;;;;;;;2.87;2.67;;;11.00;63.50;;;;;;5086911;28;20582;-68
2021/11/01 06:18:20;;;;;;;3.45;3.00;;;11.00;63.30;;;;;;5104767;28;21300;-67
2021/11/01 06:20:51;;;;;;;2.63;2.13;;;10.90;64.40;;;;;;5107824;28;20693;-67
2021/11/01 06:23:23;;;;;;;3.50;2.40;;;11.00;62.40;;;;;;5108408;28;20751;-70
2021/11/01 06:25:56;;;;;;;3.13;2.83;;;11.00;63.30;;;;;;5097531;28;20540;-67
2021/11/01 06:28:27;;;;;;;4.07;2.60;;;11.10;63.10;;;;;;5108500;28;20982;-68
2021/11/01 06:30:59;;;;;;;3.73;2.90;;;11.00;63.00;;;;;;5107055;28;20453;-70
2021/11/01 06:39:27;;;;;;;3.20;2.90;;;11.00;64.20;;;;;;5102829;28;20454;-67
2021/11/01 06:42:11;;;;;;;3.60;3.30;;;11.00;65.60;;;;;;5107091;28;20486;-67
2021/11/01 06:45:27;;;;;;;2.80;2.60;;;11.00;63.70;;;;;;5107934;28;20449;-68
2021/11/01 06:51:02;;;;;;;3.77;2.80;;;11.00;63.50;;;;;;5098638;28;20832;-67
2021/11/01 06:53:54;;;;;;;2.60;2.40;;;10.90;63.60;;;;;;5098891;28;20457;-68
2021/11/01 06:56:43;;;;;;;2.65;2.22;;;10.90;64.00;;;;;;5101554;28;20219;-67
2021/11/01 07:16:27;;;;;;;2.77;2.57;;;10.90;65.00;;;;;;5069982;28;20209;-67
2021/11/01 07:19:01;;;;;;;3.10;2.90;;;10.90;64.80;;;;;;5097994;27;20592;-72
2021/11/01 08:17:15;;;;;;;2.83;2.60;;;10.90;65.10;;;;;;5105597;28;20596;-68
2021/11/01 08:43:57;;;;;;;3.50;2.25;;;10.70;66.70;;;;;;5105361;27;20461;-68
2021/11/01 09:03:36;;;;;;;2.60;2.40;;;10.70;66.20;;;;;;5094655;28;20829;-68
2021/11/01 09:06:26;;;;;;;2.70;2.10;;;10.70;65.90;;;;;;5103966;28;20474;-67
2021/11/01 09:20:02;;;;;;;2.50;2.23;;;10.70;65.40;;;;;;5108073;28;20216;-68
2021/11/01 09:25:30;;;;;;;4.55;2.50;;;10.70;66.00;;;;;;5092502;27;20503;-67
2021/11/01 09:28:07;;;;;;;2.17;1.98;;;10.70;65.10;;;;;;5098416;28;20614;-68
2021/11/01 09:36:26;;;;;;;3.15;2.38;;;10.80;65.10;;;;;;5068841;28;20461;-67
2021/11/01 09:41:45;;;;;;;2.33;2.13;;;10.80;65.60;;;;;;5090034;28;20247;-68
2021/11/01 09:44:22;;;;;;;2.53;2.33;;;10.70;65.00;;;;;;5106482;28;20218;-70
2021/11/01 09:46:57;;;;;;;2.80;2.35;;;10.70;65.30;;;;;;5109257;28;20481;-74
2021/11/01 09:49:29;;;;;;;2.35;2.15;;;10.70;66.10;;;;;;5104802;28;20252;-69
2021/11/01 09:52:05;;;;;;;2.67;2.47;;;10.70;66.20;;;;;;5095257;28;20216;-68
2021/11/01 09:54:39;;;;;;;3.67;2.27;;;10.70;65.70;;;;;;5094120;28;20218;-68
2021/11/01 09:57:20;;;;;;;1.97;1.87;;;10.70;65.30;;;;;;5096516;28;20458;-71
2021/11/01 09:59:49;;;;;;;2.30;2.10;;;10.70;66.30;;;;;;5105494;28;20967;-72
2021/11/01 10:02:22;;;;;;;2.70;2.03;;;10.70;66.20;;;;;;5104344;28;21025;-69
2021/11/01 10:04:54;;;;;;;2.35;2.15;;;10.70;66.00;;;;;;5094720;28;20482;-72
2021/11/01 10:07:32;;;;;;;3.10;2.37;;;10.70;65.80;;;;;;5092473;28;20213;-68
2021/11/01 10:10:11;;;;;;;3.23;2.60;;;10.70;65.80;;;;;;5101275;28;20453;-68
2021/11/01 10:12:44;;;;;;;2.37;2.27;;;10.60;66.10;;;;;;5100013;28;20449;-68
2021/11/01 10:18:06;;;;;;;2.65;2.45;;;10.60;67.00;;;;;;5109125;28;20518;-68
2021/11/01 10:20:41;;;;;;;2.30;2.10;;;10.60;66.90;;;;;;5107759;28;20242;-69
2021/11/01 10:23:17;;;;;;;2.00;1.90;;;10.60;67.30;;;;;;5099587;28;20930;-70
2021/11/01 10:25:50;;;;;;;4.20;3.37;;;10.60;67.40;;;;;;5099412;28;20268;-69
2021/11/01 10:28:29;;;;;;;3.10;2.77;;;10.70;66.20;;;;;;5094750;28;20466;-70
2021/11/01 10:31:07;;;;;;;2.67;2.47;;;10.80;66.70;;;;;;5097047;28;20903;-69
2021/11/01 10:33:45;;;;;;;2.92;2.70;;;10.90;66.90;;;;;;5102285;28;20511;-74
2021/11/01 10:36:28;;;;;;;2.67;2.40;;;10.90;66.90;;;;;;5105384;28;20691;-72
2021/11/01 10:39:02;;;;;;;2.80;2.60;;;11.00;65.70;;;;;;5099651;28;20461;-69
2021/11/01 10:41:49;;;;;;;3.20;2.30;;;11.00;65.30;;;;;;5097956;28;20476;-68
2021/11/01 10:44:52;;;;;;;2.60;2.30;;;11.10;65.30;;;;;;5107144;28;20460;-69
2021/11/01 10:59:25;;;;;;;3.70;3.10;;;11.20;65.60;;;;;;5106753;28;20552;-70
2021/11/01 11:13:10;;;;;;;4.40;2.50;;;11.30;65.70;;;;;;5073053;28;20463;-68
2021/11/01 11:15:45;;;;;;;3.00;2.70;;;11.30;64.60;;;;;;5066841;28;20454;-68
2021/11/01 11:18:45;;;;;;;3.50;2.70;;;11.30;65.20;;;;;;5073066;28;20871;-68
2021/11/01 11:21:33;;;;;;;2.80;2.50;;;11.30;66.00;;;;;;5074131;28;20969;-72
2021/11/01 11:27:11;;;;;;;4.03;2.63;;;11.30;65.10;;;;;;5069547;28;20466;-68
2021/11/01 11:29:58;;;;;;;3.80;2.50;;;11.30;65.70;;;;;;5067967;28;20913;-70
2021/11/01 11:32:58;;;;;;;3.67;2.63;;;11.30;65.30;;;;;;5071052;28;20928;-67
2021/11/01 11:38:40;;;;;;;2.60;2.40;;;11.40;66.30;;;;;;5064650;28;20478;-65
2021/11/01 11:44:07;;;;;;;2.77;2.57;;;11.40;65.50;;;;;;5035860;28;20474;-68
2021/11/01 11:49:29;;;;;;;2.70;2.50;;;11.40;65.90;;;;;;5068404;28;20471;-64
2021/11/01 11:52:01;;;;;;;2.93;2.50;;;11.40;65.40;;;;;;5079834;28;20454;-64
2021/11/01 11:54:35;;;;;;;3.83;2.93;;;11.40;65.50;;;;;;5072106;28;20543;-69
2021/11/01 11:57:16;;;;;;;2.67;2.43;;;11.50;66.30;;;;;;5068722;28;20466;-66
2021/11/01 11:59:50;;;;;;;2.90;2.60;;;11.50;66.50;;;;;;5063604;28;20798;-65
2021/11/01 12:02:37;;;;;;;2.80;2.60;;;11.50;66.40;;;;;;5068677;28;20965;-69
2021/11/01 12:05:32;;;;;;;3.00;2.60;;;11.50;66.60;;;;;;5073989;28;21069;-67
2021/11/01 12:08:07;;;;;;;2.70;2.50;;;11.50;67.10;;;;;;5102820;28;20481;-64
2021/11/01 12:11:12;;;;;;;4.13;3.53;;;11.50;66.60;;;;;;5099651;28;20454;-63
2021/11/01 12:19:24;;;;;;;2.70;2.50;;;11.60;65.70;;;;;;5094817;28;20793;-64
2021/11/01 12:22:01;;;;;;;3.43;2.53;;;11.60;66.50;;;;;;5112114;28;20485;-64
2021/11/01 12:24:33;;;;;;;3.23;2.77;;;11.70;66.90;;;;;;5107450;28;20460;-65
2021/11/01 12:27:05;;;;;;;4.60;2.87;;;11.60;66.50;;;;;;5105351;28;21351;-63
2021/11/01 12:29:37;;;;;;;3.30;3.00;;;11.70;66.00;;;;;;5101340;28;21003;-63
2021/11/01 12:32:12;;;;;;;4.87;3.10;;;11.60;66.40;;;;;;5106914;28;20516;-65
2021/11/01 12:34:54;;;;;;;3.57;3.27;;;11.70;66.70;;;;;;5089684;28;20897;-68
2021/11/01 12:37:29;;;;;;;3.40;2.93;;;11.70;66.80;;;;;;5099594;28;20462;-67
2021/11/01 12:40:08;;;;;;;2.80;2.60;;;11.70;67.10;;;;;;5098865;28;20456;-64
2021/11/01 12:42:55;;;;;;;4.47;2.97;;;11.70;69.10;;;;;;5106902;28;20477;-66
2021/11/01 12:57:10;;;;;;;3.43;3.00;;;11.20;78.60;;;;;;5104225;28;20449;-65
2021/11/01 12:59:46;;;;;;;3.40;3.03;;;11.10;77.40;;;;;;5108467;28;20453;-65
2021/11/01 13:02:19;;;;;;;2.97;2.77;;;11.10;76.90;;;;;;5104757;28;20477;-69
2021/11/01 13:04:50;;;;;;;3.93;3.57;;;11.10;74.50;;;;;;5096576;28;20477;-64
2021/11/01 13:07:34;;;;;;;3.05;2.80;;;11.10;75.10;;;;;;5107542;28;20907;-67
2021/11/01 13:10:16;;;;;;;4.17;2.87;;;11.20;73.90;;;;;;5105775;28;20315;-63
2021/11/01 13:19:07;;;;;;;3.47;3.13;;;11.40;70.80;;;;;;5099171;28;20506;-70
2021/11/01 13:21:45;;;;;;;3.17;2.87;;;11.40;70.20;;;;;;5107456;28;20965;-64
2021/11/01 13:24:18;;;;;;;3.07;2.77;;;11.50;71.20;;;;;;5105637;28;20581;-64
2021/11/01 13:27:02;;;;;;;3.23;2.93;;;11.50;70.70;;;;;;5100743;28;20980;-64
2021/11/01 13:35:40;;;;;;;3.20;2.93;;;11.30;77.10;;;;;;5102443;28;21014;-64
2021/11/01 13:38:12;;;;;;;3.10;2.90;;;11.20;77.90;;;;;;5097150;28;20449;-65
2021/11/01 13:40:45;;;;;;;3.07;2.80;;;11.10;81.90;;;;;;5107526;28;20457;-64
2021/11/01 13:43:28;;;;;;;4.60;2.73;;;10.90;87.20;;;;;;5109224;28;20488;-69
2021/11/01 13:46:00;;;;;;;2.90;2.70;;;10.70;89.10;;;;;;5099680;27;20540;-64
2021/11/01 13:48:33;;;;;;;3.33;3.00;;;10.60;88.20;;;;;;5106941;28;20617;-64
2021/11/01 13:51:08;;;;;;;3.20;2.88;;;10.50;91.00;;;;;;5110931;28;20453;-66
2021/11/01 13:53:46;;;;;;;3.30;3.00;;;10.40;92.60;;;;;;5105015;28;20236;-64
2021/11/01 13:56:21;;;;;;;3.45;3.15;;;10.30;92.70;;;;;;5100658;28;20204;-64
2021/11/01 13:59:01;;;;;;;3.38;2.97;;;10.20;92.50;;;;;;5104952;28;20218;-63
2021/11/01 14:01:57;;;;;;;3.08;2.88;;;10.20;94.10;;;;;;5102475;28;20219;-65
2021/11/01 14:13:16;;;;;;;2.42;2.17;;;10.10;93.80;;;;;;5097598;28;20550;-65
2021/11/01 14:18:51;;;;;;;3.00;2.70;;;10.30;92.90;;;;;;5101732;28;20274;-64
2021/11/01 14:33:00;;;;;;;3.00;2.80;;;10.70;88.20;;;;;;5100486;28;20207;-74
2021/11/01 15:01:20;;;;;;;3.57;2.50;;;10.90;84.70;;;;;;5105201;28;20703;-71
2021/11/01 15:07:25;;;;;;;3.40;2.92;;;11.00;86.60;;;;;;5104402;28;20982;-73
2021/11/01 15:15:43;;;;;;;3.47;3.17;;;10.90;87.00;;;;;;5053887;28;20451;-74
2021/11/01 15:18:39;;;;;;;2.92;2.70;;;10.90;85.10;;;;;;5113671;28;20448;-71
2021/11/01 15:21:15;;;;;;;3.17;2.83;;;10.90;86.90;;;;;;5113988;28;20216;-72
2021/11/01 15:24:08;;;;;;;3.10;2.90;;;10.90;86.10;;;;;;5103230;28;20477;-71
2021/11/01 15:26:59;;;;;;;3.13;2.87;;;10.90;87.90;;;;;;5113696;28;20462;-71
2021/11/01 16:17:42;;;;;;;4.22;3.22;;;9.20;99.90;;;;;;5114201;28;20267;-70
2021/11/01 16:20:12;;;;;;;4.32;3.92;;;9.30;99.90;;;;;;5106435;28;20212;-71
2021/11/01 16:22:44;;;;;;;3.65;3.35;;;9.30;99.90;;;;;;5112651;28;20315;-70
2021/11/01 16:25:15;;;;;;;3.65;3.20;;;9.30;99.90;;;;;;5109461;28;20218;-73
2021/11/01 16:27:48;;;;;;;3.65;3.35;;;9.30;99.90;;;;;;5111461;28;20276;-70
2021/11/01 16:30:22;;;;;;;4.40;3.15;;;9.30;99.90;;;;;;5106457;28;20262;-75
2021/11/01 16:32:59;;;;;;;4.15;3.75;;;9.30;99.90;;;;;;5111711;28;20593;-73
2021/11/01 16:35:36;;;;;;;4.88;4.38;;;9.30;99.90;;;;;;5106002;28;20740;-74
2021/11/01 16:38:10;;;;;;;3.78;3.47;;;9.20;99.90;;;;;;5112226;28;20207;-70
2021/11/01 16:40:42;;;;;;;3.65;3.20;;;9.10;99.90;;;;;;5109125;28;20216;-73
2021/11/01 16:43:15;;;;;;;4.60;3.58;;;9.10;99.90;;;;;;5111997;27;20245;-73
2021/11/01 16:45:51;;;;;;;5.63;3.83;;;9.00;99.90;;;;;;5111100;27;20721;-71
2021/11/01 16:48:24;;;;;;;4.63;4.22;;;9.00;99.90;;;;;;5107275;28;20218;-71
2021/11/01 16:50:56;;;;;;;3.45;3.15;;;8.90;99.90;;;;;;5110810;28;20211;-70
2021/11/01 16:53:28;;;;;;;3.60;3.30;;;9.00;99.90;;;;;;5113417;27;20206;-72
2021/11/01 16:56:16;;;;;;;3.85;3.50;;;9.10;99.90;;;;;;5111557;28;20215;-70
2021/11/01 16:58:53;;;;;;;3.38;3.08;;;9.10;99.90;;;;;;5111394;28;20216;-70
2021/11/01 17:01:27;;;;;;;4.40;3.60;;;9.10;99.90;;;;;;5111021;28;20207;-70
2021/11/01 17:04:02;;;;;;;3.75;3.45;;;9.10;99.90;;;;;;5105830;28;20229;-71
2021/11/01 17:06:39;;;;;;;3.83;3.50;;;9.10;99.90;;;;;;5111869;28;20229;-73
2021/11/01 17:09:32;;;;;;;4.00;3.60;;;9.00;99.90;;;;;;5111514;28;20207;-70
2021/11/01 17:23:47;;;;;;;4.25;3.85;;;8.80;99.90;;;;;;5111034;28;20223;-72
2021/11/01 17:26:27;;;;;;;4.53;4.18;;;8.80;99.90;;;;;;5106567;28;20557;-72
2021/11/01 17:29:27;;;;;;;4.53;4.13;;;8.70;99.90;;;;;;5101816;28;20211;-76
2021/11/01 17:35:11;;;;;;;4.85;4.15;;;8.70;99.90;;;;;;5109743;28;20208;-71
2021/11/01 17:37:56;;;;;;;5.93;5.30;;;8.70;99.90;;;;;;5111004;28;20208;-74
2021/11/01 18:43:59;;;;;;;6.28;4.40;;;9.00;99.90;;;;;;5059213;28;20674;-73
2021/11/01 18:52:18;;;;;;;5.68;5.18;;;9.10;99.90;;;;;;5108680;28;20559;-70
2021/11/01 18:54:54;;;;;;;5.97;5.47;;;9.10;99.90;;;;;;5108402;28;20208;-69
2021/11/01 18:57:29;;;;;;;6.10;5.07;;;9.10;99.90;;;;;;5110002;28;20207;-70
2021/11/01 19:00:03;;;;;;;6.20;5.70;;;9.00;99.90;;;;;;5101040;28;20214;-70
2021/11/01 19:02:44;;;;;;;5.95;5.35;;;9.00;99.90;;;;;;5109228;28;20207;-71
2021/11/01 19:05:22;;;;;;;5.90;5.10;;;8.90;99.90;;;;;;5108364;28;20257;-70
2021/11/01 19:08:03;;;;;;;6.07;5.47;;;8.80;99.90;;;;;;5111893;28;20215;-69
2021/11/01 19:10:54;;;;;;;6.43;5.05;;;8.60;99.90;;;;;;5108709;28;20230;-69
2021/11/01 20:04:25;;;;;;;8.00;7.25;;;8.40;99.90;;;;;;5098268;28;20234;-67
2021/11/01 20:08:04;;;;;;;9.55;7.22;;;8.40;99.90;;;;;;5115669;28;20625;-67
2021/11/01 20:10:25;;;;;;;8.48;6.50;;;8.50;99.90;;;;;;5109473;28;20227;-67
2021/11/01 20:13:07;;;;;;;7.68;6.72;;;8.50;99.90;;;;;;5098806;28;20212;-69
2021/11/01 20:15:55;;;;;;;8.52;6.93;;;8.60;99.90;;;;;;5111580;28;20222;-69
2021/11/01 21:26:22;;;;;;;9.23;8.10;;;8.40;99.90;;;;;;5098781;28;20596;-68
2021/11/01 21:28:54;;;;;;;9.70;8.65;;;8.40;99.90;;;;;;5109904;28;20207;-70
2021/11/01 21:31:26;;;;;;;9.52;8.50;;;8.50;99.90;;;;;;5109838;28;20211;-67
2021/11/01 21:34:00;;;;;;;8.43;7.63;;;8.50;99.90;;;;;;5110636;28;20211;-69
2021/11/01 21:36:31;;;;;;;8.43;7.72;;;8.50;99.90;;;;;;5108128;28;20204;-71
2021/11/01 21:39:02;;;;;;;9.35;8.40;;;8.50;99.90;;;;;;5111324;28;20234;-67
2021/11/01 21:41:32;;;;;;;10.02;9.13;;;8.50;99.90;;;;;;5109273;27;20215;-68
2021/11/01 21:44:03;;;;;;;8.90;8.00;;;8.50;99.90;;;;;;5110935;28;20214;-69
2021/11/01 21:46:36;;;;;;;8.82;8.00;;;8.50;99.90;;;;;;5109129;28;20326;-68
2021/11/01 21:49:06;;;;;;;9.20;8.18;;;8.50;99.90;;;;;;5108622;28;20235;-71
2021/11/01 21:51:40;;;;;;;8.65;7.10;;;8.50;99.90;;;;;;5110879;28;20902;-71
2021/11/01 21:54:20;;;;;;;8.52;7.72;;;8.50;99.90;;;;;;5108689;27;20211;-68
2021/11/01 21:56:55;;;;;;;8.50;7.68;;;8.50;99.90;;;;;;5110503;28;20223;-72
2021/11/01 22:16:52;;;;;;;8.20;7.50;;;8.40;99.90;;;;;;5125931;27;20215;-69
2021/11/01 22:19:46;;;;;;;8.63;6.70;;;8.50;99.90;;;;;;5112307;28;20264;-68
2021/11/01 22:22:35;;;;;;;7.90;7.10;;;8.40;99.90;;;;;;5128193;27;20223;-70
2021/11/01 22:25:11;;;;;;;10.00;9.00;;;8.30;99.90;;;;;;5119593;28;20211;-70
2021/11/01 22:33:55;;;;;;;9.52;8.63;;;8.20;99.90;;;;;;5125809;27;20238;-73
2021/11/01 22:39:21;;;;;;;8.80;7.53;;;8.40;99.90;;;;;;5113505;28;20540;-69
2021/11/01 22:45:00;;;;;;;8.00;7.25;;;8.30;99.90;;;;;;5112046;27;20215;-68
2021/11/01 22:55:58;;;;;;;8.60;7.75;;;8.50;99.90;;;;;;5125503;28;20294;-71
2021/11/01 22:58:29;;;;;;;7.72;6.97;;;8.50;99.90;;;;;;5127750;27;20211;-68
2021/11/01 23:01:06;;;;;;;8.20;7.40;;;8.60;99.90;;;;;;5127591;27;20253;-70
2021/11/01 23:03:42;;;;;;;8.43;6.55;;;8.70;99.90;;;;;;5123837;27;20219;-72
2021/11/01 23:06:29;;;;;;;7.35;6.68;;;8.80;99.90;;;;;;5125591;27;20210;-74
2021/11/01 23:31:35;;;;;;;6.28;5.78;;;8.70;99.90;;;;;;5111476;28;20204;-72
2021/11/01 23:34:08;;;;;;;6.30;5.70;;;8.70;99.90;;;;;;5112055;27;20212;-71
2021/11/01 23:36:41;;;;;;;6.68;6.00;;;8.70;99.90;;;;;;5110967;28;20234;-75